sensor_id;sensor_type;location;lat;lon;timestamp;temperature;humidity
19813;DHT22;10066;48.108;11.448;2023-04-24T00:01:09;10.20;99.90
19813;DHT22;10066;48.108;11.448;2023-04-24T00:03:37;10.20;99.90
19813;DHT22;10066;48.108;11.448;2023-04-24T00:06:04;10.20;99.90
19813;DHT22;10066;48.108;11.448;2023-04-24T00:08:32;10.20;99.90
19813;DHT22;10066;48.108;11.448;2023-04-24T00:10:59;10.20;99.90
19813;DHT22;10066;48.108;11.448;2023-04-24T00:13:26;10.20;99.90
19813;DHT22;10066;48.108;11.448;2023-04-24T00:15:53;10.20;99.90
19813;DHT22;10066;48.108;11.448;2023-04-24T00:18:20;10.20;99.90
19813;DHT22;10066;48.108;11.448;2023-04-24T00:20:49;10.20;99.90
19813;DHT22;10066;48.108;11.448;2023-04-24T00:23:16;10.20;99.90
19813;DHT22;10066;48.108;11.448;2023-04-24T00:25:43;10.20;99.90
19813;DHT22;10066;48.108;11.448;2023-04-24T00:28:10;10.10;99.90
19813;DHT22;10066;48.108;11.448;2023-04-24T00:30:36;10.10;99.90
19813;DHT22;10066;48.108;11.448;2023-04-24T00:33:03;10.10;99.90
19813;DHT22;10066;48.108;11.448;2023-04-24T00:35:30;10.10;99.90
19813;DHT22;10066;48.108;11.448;2023-04-24T00:38:00;10.10;99.90
19813;DHT22;10066;48.108;11.448;2023-04-24T00:40:27;10.10;99.90
19813;DHT22;10066;48.108;11.448;2023-04-24T00:42:54;10.10;99.90
19813;DHT22;10066;48.108;11.448;2023-04-24T00:45:22;10.10;99.90
19813;DHT22;10066;48.108;11.448;2023-04-24T00:47:49;10.00;99.90
19813;DHT22;10066;48.108;11.448;2023-04-24T00:50:16;10.10;99.90
19813;DHT22;10066;48.108;11.448;2023-04-24T00:52:44;10.10;99.90
19813;DHT22;10066;48.108;11.448;2023-04-24T00:55:13;10.10;99.90
19813;DHT22;10066;48.108;11.448;2023-04-24T00:57:40;10.10;99.90
19813;DHT22;10066;48.108;11.448;2023-04-24T01:00:08;10.10;99.90
19813;DHT22;10066;48.108;11.448;2023-04-24T01:02:38;10.00;99.90
19813;DHT22;10066;48.108;11.448;2023-04-24T01:05:09;10.00;99.90
19813;DHT22;10066;48.108;11.448;2023-04-24T01:07:38;10.00;99.90
19813;DHT22;10066;48.108;11.448;2023-04-24T01:10:05;9.90;99.90
19813;DHT22;10066;48.108;11.448;2023-04-24T01:12:35;9.90;99.90
19813;DHT22;10066;48.108;11.448;2023-04-24T01:15:02;9.90;99.90
19813;DHT22;10066;48.108;11.448;2023-04-24T01:17:30;9.90;99.90
19813;DHT22;10066;48.108;11.448;2023-04-24T01:19:58;9.90;99.90
19813;DHT22;10066;48.108;11.448;2023-04-24T01:22:27;9.90;99.90
19813;DHT22;10066;48.108;11.448;2023-04-24T01:24:54;9.90;99.90
19813;DHT22;10066;48.108;11.448;2023-04-24T01:27:20;9.80;99.90
19813;DHT22;10066;48.108;11.448;2023-04-24T01:29:48;9.80;99.90
19813;DHT22;10066;48.108;11.448;2023-04-24T01:32:17;9.80;99.90
19813;DHT22;10066;48.108;11.448;2023-04-24T01:34:45;9.80;99.90
19813;DHT22;10066;48.108;11.448;2023-04-24T01:37:12;9.80;99.90
19813;DHT22;10066;48.108;11.448;2023-04-24T01:39:41;9.80;99.90
19813;DHT22;10066;48.108;11.448;2023-04-24T01:42:08;9.80;99.90
19813;DHT22;10066;48.108;11.448;2023-04-24T01:44:35;9.70;99.90
19813;DHT22;10066;48.108;11.448;2023-04-24T01:47:02;9.70;99.90
19813;DHT22;10066;48.108;11.448;2023-04-24T01:49:29;9.70;99.90
19813;DHT22;10066;48.108;11.448;2023-04-24T01:51:56;9.60;99.90
19813;DHT22;10066;48.108;11.448;2023-04-24T01:54:23;9.60;99.90
19813;DHT22;10066;48.108;11.448;2023-04-24T01:56:51;9.60;99.90
19813;DHT22;10066;48.108;11.448;2023-04-24T01:59:20;9.60;99.90
19813;DHT22;10066;48.108;11.448;2023-04-24T02:01:48;9.50;99.90
19813;DHT22;10066;48.108;11.448;2023-04-24T02:04:15;9.50;99.90
19813;DHT22;10066;48.108;11.448;2023-04-24T02:06:42;9.40;99.90
19813;DHT22;10066;48.108;11.448;2023-04-24T02:09:08;9.40;99.90
19813;DHT22;10066;48.108;11.448;2023-04-24T02:11:36;9.50;99.90
19813;DHT22;10066;48.108;11.448;2023-04-24T02:14:04;9.40;99.90
19813;DHT22;10066;48.108;11.448;2023-04-24T02:16:31;9.40;99.90
19813;DHT22;10066;48.108;11.448;2023-04-24T02:18:59;9.40;99.90
19813;DHT22;10066;48.108;11.448;2023-04-24T02:21:26;9.40;99.90
19813;DHT22;10066;48.108;11.448;2023-04-24T02:23:54;9.30;99.90
19813;DHT22;10066;48.108;11.448;2023-04-24T02:26:21;9.30;99.90
19813;DHT22;10066;48.108;11.448;2023-04-24T02:28:47;9.30;99.90
19813;DHT22;10066;48.108;11.448;2023-04-24T02:31:16;9.30;99.90
19813;DHT22;10066;48.108;11.448;2023-04-24T02:33:43;9.30;99.90
19813;DHT22;10066;48.108;11.448;2023-04-24T02:36:10;9.30;99.90
19813;DHT22;10066;48.108;11.448;2023-04-24T02:38:37;9.40;99.90
19813;DHT22;10066;48.108;11.448;2023-04-24T02:41:04;9.30;99.90
19813;DHT22;10066;48.108;11.448;2023-04-24T02:43:31;9.30;99.90
19813;DHT22;10066;48.108;11.448;2023-04-24T02:45:59;9.40;99.90
19813;DHT22;10066;48.108;11.448;2023-04-24T02:48:27;9.40;99.90
19813;DHT22;10066;48.108;11.448;2023-04-24T02:50:54;9.30;99.90
19813;DHT22;10066;48.108;11.448;2023-04-24T02:53:21;9.30;99.90
19813;DHT22;10066;48.108;11.448;2023-04-24T02:55:48;9.30;99.90
19813;DHT22;10066;48.108;11.448;2023-04-24T02:58:15;9.30;99.90
19813;DHT22;10066;48.108;11.448;2023-04-24T03:00:45;9.30;99.90
19813;DHT22;10066;48.108;11.448;2023-04-24T03:03:12;9.30;99.90
19813;DHT22;10066;48.108;11.448;2023-04-24T03:05:41;9.30;99.90
19813;DHT22;10066;48.108;11.448;2023-04-24T03:08:08;9.30;99.90
19813;DHT22;10066;48.108;11.448;2023-04-24T03:10:35;9.30;99.90
19813;DHT22;10066;48.108;11.448;2023-04-24T03:13:02;9.30;99.90
19813;DHT22;10066;48.108;11.448;2023-04-24T03:15:29;9.30;99.90
19813;DHT22;10066;48.108;11.448;2023-04-24T03:17:56;9.30;99.90
19813;DHT22;10066;48.108;11.448;2023-04-24T03:20:23;9.30;99.90
19813;DHT22;10066;48.108;11.448;2023-04-24T03:22:52;9.40;99.90
19813;DHT22;10066;48.108;11.448;2023-04-24T03:25:19;9.30;99.90
19813;DHT22;10066;48.108;11.448;2023-04-24T03:27:46;9.30;99.90
19813;DHT22;10066;48.108;11.448;2023-04-24T03:30:13;9.30;99.90
19813;DHT22;10066;48.108;11.448;2023-04-24T03:32:40;9.30;99.90
19813;DHT22;10066;48.108;11.448;2023-04-24T03:35:08;9.20;99.90
19813;DHT22;10066;48.108;11.448;2023-04-24T03:37:35;9.20;99.90
19813;DHT22;10066;48.108;11.448;2023-04-24T03:40:04;9.20;99.90
19813;DHT22;10066;48.108;11.448;2023-04-24T03:42:32;9.20;99.90
19813;DHT22;10066;48.108;11.448;2023-04-24T03:44:59;9.20;99.90
19813;DHT22;10066;48.108;11.448;2023-04-24T03:47:26;9.20;99.90
19813;DHT22;10066;48.108;11.448;2023-04-24T03:49:53;9.20;99.90
19813;DHT22;10066;48.108;11.448;2023-04-24T03:52:21;9.20;99.90
19813;DHT22;10066;48.108;11.448;2023-04-24T03:54:48;9.20;99.90
19813;DHT22;10066;48.108;11.448;2023-04-24T03:57:16;9.20;99.90
19813;DHT22;10066;48.108;11.448;2023-04-24T03:59:43;9.20;99.90
19813;DHT22;10066;48.108;11.448;2023-04-24T04:02:10;9.20;99.90
19813;DHT22;10066;48.108;11.448;2023-04-24T04:04:37;9.20;99.90
19813;DHT22;10066;48.108;11.448;2023-04-24T04:07:03;9.20;99.90
19813;DHT22;10066;48.108;11.448;2023-04-24T04:09:31;9.20;99.90
19813;DHT22;10066;48.108;11.448;2023-04-24T04:11:58;9.20;99.90
19813;DHT22;10066;48.108;11.448;2023-04-24T04:14:27;9.20;99.90
19813;DHT22;10066;48.108;11.448;2023-04-24T04:16:54;9.20;99.90
19813;DHT22;10066;48.108;11.448;2023-04-24T04:19:21;9.20;99.90
19813;DHT22;10066;48.108;11.448;2023-04-24T04:21:48;9.20;99.90
19813;DHT22;10066;48.108;11.448;2023-04-24T04:24:18;9.20;99.90
19813;DHT22;10066;48.108;11.448;2023-04-24T04:26:46;9.20;99.90
19813;DHT22;10066;48.108;11.448;2023-04-24T04:29:13;9.20;99.90
19813;DHT22;10066;48.108;11.448;2023-04-24T04:31:42;9.20;99.90
19813;DHT22;10066;48.108;11.448;2023-04-24T04:34:09;9.20;99.90
19813;DHT22;10066;48.108;11.448;2023-04-24T04:36:37;9.20;99.90
19813;DHT22;10066;48.108;11.448;2023-04-24T04:39:05;9.20;99.90
19813;DHT22;10066;48.108;11.448;2023-04-24T04:41:32;9.20;99.90
19813;DHT22;10066;48.108;11.448;2023-04-24T04:44:00;9.10;99.90
19813;DHT22;10066;48.108;11.448;2023-04-24T04:46:30;9.10;99.90
19813;DHT22;10066;48.108;11.448;2023-04-24T04:48:59;9.10;99.90
19813;DHT22;10066;48.108;11.448;2023-04-24T04:51:26;9.10;99.90
19813;DHT22;10066;48.108;11.448;2023-04-24T04:53:53;9.10;99.90
19813;DHT22;10066;48.108;11.448;2023-04-24T04:56:20;9.10;99.90
19813;DHT22;10066;48.108;11.448;2023-04-24T04:58:47;9.10;99.90
19813;DHT22;10066;48.108;11.448;2023-04-24T05:01:14;9.10;99.90
19813;DHT22;10066;48.108;11.448;2023-04-24T05:03:41;9.10;99.90
19813;DHT22;10066;48.108;11.448;2023-04-24T05:06:09;9.10;99.90
19813;DHT22;10066;48.108;11.448;2023-04-24T05:08:36;9.10;99.90
19813;DHT22;10066;48.108;11.448;2023-04-24T05:11:04;9.10;99.90
19813;DHT22;10066;48.108;11.448;2023-04-24T05:13:31;9.10;99.90
19813;DHT22;10066;48.108;11.448;2023-04-24T05:15:58;9.10;99.90
19813;DHT22;10066;48.108;11.448;2023-04-24T05:18:25;9.10;99.90
19813;DHT22;10066;48.108;11.448;2023-04-24T05:20:52;9.10;99.90
19813;DHT22;10066;48.108;11.448;2023-04-24T05:23:21;9.20;99.90
19813;DHT22;10066;48.108;11.448;2023-04-24T05:25:47;9.20;99.90
19813;DHT22;10066;48.108;11.448;2023-04-24T05:28:15;9.20;99.90
19813;DHT22;10066;48.108;11.448;2023-04-24T05:30:41;9.20;99.90
19813;DHT22;10066;48.108;11.448;2023-04-24T05:33:08;9.20;99.90
19813;DHT22;10066;48.108;11.448;2023-04-24T05:35:35;9.30;99.90
19813;DHT22;10066;48.108;11.448;2023-04-24T05:38:02;9.30;99.90
19813;DHT22;10066;48.108;11.448;2023-04-24T05:40:31;9.30;99.90
19813;DHT22;10066;48.108;11.448;2023-04-24T05:42:58;9.30;99.90
19813;DHT22;10066;48.108;11.448;2023-04-24T05:45:25;9.40;99.90
19813;DHT22;10066;48.108;11.448;2023-04-24T05:47:52;9.40;99.90
19813;DHT22;10066;48.108;11.448;2023-04-24T05:50:19;9.40;99.90
19813;DHT22;10066;48.108;11.448;2023-04-24T05:52:46;9.50;99.90
19813;DHT22;10066;48.108;11.448;2023-04-24T05:55:16;9.50;99.90
19813;DHT22;10066;48.108;11.448;2023-04-24T05:57:56;9.60;99.90
19813;DHT22;10066;48.108;11.448;2023-04-24T06:00:24;9.60;99.90
19813;DHT22;10066;48.108;11.448;2023-04-24T06:02:51;9.60;99.90
19813;DHT22;10066;48.108;11.448;2023-04-24T06:05:18;9.60;99.90
19813;DHT22;10066;48.108;11.448;2023-04-24T06:07:45;9.70;99.90
19813;DHT22;10066;48.108;11.448;2023-04-24T06:10:12;9.70;99.90
19813;DHT22;10066;48.108;11.448;2023-04-24T06:12:39;9.70;99.90
19813;DHT22;10066;48.108;11.448;2023-04-24T06:15:08;9.80;99.90
19813;DHT22;10066;48.108;11.448;2023-04-24T06:17:35;9.90;99.90
19813;DHT22;10066;48.108;11.448;2023-04-24T06:20:03;9.90;99.90
19813;DHT22;10066;48.108;11.448;2023-04-24T06:22:31;10.00;99.90
19813;DHT22;10066;48.108;11.448;2023-04-24T06:24:58;10.10;99.90
19813;DHT22;10066;48.108;11.448;2023-04-24T06:27:25;10.20;99.90
19813;DHT22;10066;48.108;11.448;2023-04-24T06:29:52;10.30;99.90
19813;DHT22;10066;48.108;11.448;2023-04-24T06:32:23;10.40;99.90
19813;DHT22;10066;48.108;11.448;2023-04-24T06:34:51;10.40;99.90
19813;DHT22;10066;48.108;11.448;2023-04-24T06:37:19;10.50;99.90
19813;DHT22;10066;48.108;11.448;2023-04-24T06:39:46;10.50;99.90
19813;DHT22;10066;48.108;11.448;2023-04-24T06:42:13;10.60;99.90
19813;DHT22;10066;48.108;11.448;2023-04-24T06:44:40;10.70;99.90
19813;DHT22;10066;48.108;11.448;2023-04-24T06:47:07;10.70;99.90
19813;DHT22;10066;48.108;11.448;2023-04-24T06:49:36;10.80;99.90
19813;DHT22;10066;48.108;11.448;2023-04-24T06:52:04;10.90;99.90
19813;DHT22;10066;48.108;11.448;2023-04-24T06:54:31;11.00;99.90
19813;DHT22;10066;48.108;11.448;2023-04-24T06:56:58;11.10;99.90
19813;DHT22;10066;48.108;11.448;2023-04-24T06:59:26;11.20;99.90
19813;DHT22;10066;48.108;11.448;2023-04-24T07:01:54;11.20;99.90
19813;DHT22;10066;48.108;11.448;2023-04-24T07:04:22;11.40;99.90
19813;DHT22;10066;48.108;11.448;2023-04-24T07:06:51;11.50;99.90
19813;DHT22;10066;48.108;11.448;2023-04-24T07:09:19;11.70;99.90
19813;DHT22;10066;48.108;11.448;2023-04-24T07:11:47;11.80;99.90
19813;DHT22;10066;48.108;11.448;2023-04-24T07:14:14;11.90;99.90
19813;DHT22;10066;48.108;11.448;2023-04-24T07:16:41;12.00;99.90
19813;DHT22;10066;48.108;11.448;2023-04-24T07:19:09;12.10;99.90
19813;DHT22;10066;48.108;11.448;2023-04-24T07:21:36;12.10;99.90
19813;DHT22;10066;48.108;11.448;2023-04-24T07:24:04;12.10;99.90
19813;DHT22;10066;48.108;11.448;2023-04-24T07:26:35;12.20;99.90
19813;DHT22;10066;48.108;11.448;2023-04-24T07:29:01;12.30;99.90
19813;DHT22;10066;48.108;11.448;2023-04-24T07:31:28;12.40;99.90
19813;DHT22;10066;48.108;11.448;2023-04-24T07:33:55;12.60;99.90
19813;DHT22;10066;48.108;11.448;2023-04-24T07:36:23;12.70;99.90
19813;DHT22;10066;48.108;11.448;2023-04-24T07:38:51;12.80;99.90
19813;DHT22;10066;48.108;11.448;2023-04-24T07:41:19;12.80;99.90
19813;DHT22;10066;48.108;11.448;2023-04-24T07:43:47;12.80;99.90
19813;DHT22;10066;48.108;11.448;2023-04-24T07:46:14;12.80;99.90
19813;DHT22;10066;48.108;11.448;2023-04-24T07:48:41;12.80;99.90
19813;DHT22;10066;48.108;11.448;2023-04-24T07:51:08;12.70;99.90
19813;DHT22;10066;48.108;11.448;2023-04-24T07:53:36;12.60;99.90
19813;DHT22;10066;48.108;11.448;2023-04-24T07:58:32;12.50;99.90
19813;DHT22;10066;48.108;11.448;2023-04-24T08:00:58;12.50;99.90
19813;DHT22;10066;48.108;11.448;2023-04-24T08:03:25;12.50;99.90
19813;DHT22;10066;48.108;11.448;2023-04-24T08:05:52;12.40;99.90
19813;DHT22;10066;48.108;11.448;2023-04-24T08:08:22;12.40;99.90
19813;DHT22;10066;48.108;11.448;2023-04-24T08:10:49;12.40;99.90
19813;DHT22;10066;48.108;11.448;2023-04-24T08:13:16;12.30;99.90
19813;DHT22;10066;48.108;11.448;2023-04-24T08:15:44;12.40;99.90
19813;DHT22;10066;48.108;11.448;2023-04-24T08:18:11;12.50;99.90
19813;DHT22;10066;48.108;11.448;2023-04-24T08:20:39;12.60;99.90
19813;DHT22;10066;48.108;11.448;2023-04-24T08:23:06;12.70;99.90
19813;DHT22;10066;48.108;11.448;2023-04-24T08:25:32;12.80;99.90
19813;DHT22;10066;48.108;11.448;2023-04-24T08:28:01;12.80;99.90
19813;DHT22;10066;48.108;11.448;2023-04-24T08:30:28;12.70;99.90
19813;DHT22;10066;48.108;11.448;2023-04-24T08:32:57;12.60;99.90
19813;DHT22;10066;48.108;11.448;2023-04-24T08:35:24;12.60;99.90
19813;DHT22;10066;48.108;11.448;2023-04-24T08:37:52;12.40;99.90
19813;DHT22;10066;48.108;11.448;2023-04-24T08:40:23;12.40;99.90
19813;DHT22;10066;48.108;11.448;2023-04-24T08:42:54;12.30;99.90
19813;DHT22;10066;48.108;11.448;2023-04-24T08:45:22;12.10;99.90
19813;DHT22;10066;48.108;11.448;2023-04-24T08:47:50;11.90;99.90
19813;DHT22;10066;48.108;11.448;2023-04-24T08:50:20;11.60;99.90
19813;DHT22;10066;48.108;11.448;2023-04-24T08:52:48;11.30;99.90
19813;DHT22;10066;48.108;11.448;2023-04-24T08:55:16;11.10;99.90
19813;DHT22;10066;48.108;11.448;2023-04-24T08:57:44;11.00;99.90
19813;DHT22;10066;48.108;11.448;2023-04-24T09:00:14;11.00;99.90
19813;DHT22;10066;48.108;11.448;2023-04-24T09:02:42;11.10;99.90
19813;DHT22;10066;48.108;11.448;2023-04-24T09:05:10;11.20;99.90
19813;DHT22;10066;48.108;11.448;2023-04-24T09:07:39;11.30;99.90
19813;DHT22;10066;48.108;11.448;2023-04-24T09:10:08;11.20;99.90
19813;DHT22;10066;48.108;11.448;2023-04-24T09:12:35;11.20;99.90
19813;DHT22;10066;48.108;11.448;2023-04-24T09:15:03;11.10;99.90
19813;DHT22;10066;48.108;11.448;2023-04-24T09:17:31;11.10;99.90
19813;DHT22;10066;48.108;11.448;2023-04-24T09:19:58;11.00;99.90
19813;DHT22;10066;48.108;11.448;2023-04-24T09:22:29;11.00;99.90
19813;DHT22;10066;48.108;11.448;2023-04-24T09:25:02;11.00;99.90
19813;DHT22;10066;48.108;11.448;2023-04-24T09:27:31;11.20;99.90
19813;DHT22;10066;48.108;11.448;2023-04-24T09:29:59;11.20;99.90
19813;DHT22;10066;48.108;11.448;2023-04-24T09:32:26;11.30;99.90
19813;DHT22;10066;48.108;11.448;2023-04-24T09:35:12;11.40;99.90
19813;DHT22;10066;48.108;11.448;2023-04-24T09:37:40;11.50;99.90
19813;DHT22;10066;48.108;11.448;2023-04-24T09:40:10;11.70;99.90
19813;DHT22;10066;48.108;11.448;2023-04-24T09:42:38;11.80;99.90
19813;DHT22;10066;48.108;11.448;2023-04-24T09:45:09;12.00;99.90
19813;DHT22;10066;48.108;11.448;2023-04-24T09:47:37;12.00;99.90
19813;DHT22;10066;48.108;11.448;2023-04-24T09:50:12;12.10;99.90
19813;DHT22;10066;48.108;11.448;2023-04-24T09:52:41;12.30;99.90
19813;DHT22;10066;48.108;11.448;2023-04-24T09:55:15;12.40;99.90
19813;DHT22;10066;48.108;11.448;2023-04-24T09:57:55;12.40;99.90
19813;DHT22;10066;48.108;11.448;2023-04-24T10:00:23;12.50;99.90
19813;DHT22;10066;48.108;11.448;2023-04-24T10:02:54;12.60;99.90
19813;DHT22;10066;48.108;11.448;2023-04-24T10:05:23;12.70;99.90
19813;DHT22;10066;48.108;11.448;2023-04-24T10:07:51;12.80;99.90
19813;DHT22;10066;48.108;11.448;2023-04-24T10:10:19;12.90;99.90
19813;DHT22;10066;48.108;11.448;2023-04-24T10:12:47;13.00;99.90
19813;DHT22;10066;48.108;11.448;2023-04-24T10:15:15;13.00;99.90
19813;DHT22;10066;48.108;11.448;2023-04-24T10:17:47;13.10;99.90
19813;DHT22;10066;48.108;11.448;2023-04-24T10:20:18;13.20;99.90
19813;DHT22;10066;48.108;11.448;2023-04-24T10:22:47;13.40;99.90
19813;DHT22;10066;48.108;11.448;2023-04-24T10:25:16;13.50;99.90
19813;DHT22;10066;48.108;11.448;2023-04-24T10:27:45;13.60;99.90
19813;DHT22;10066;48.108;11.448;2023-04-24T10:30:13;13.70;99.90
19813;DHT22;10066;48.108;11.448;2023-04-24T10:32:40;13.80;99.90
19813;DHT22;10066;48.108;11.448;2023-04-24T10:35:08;13.90;99.90
19813;DHT22;10066;48.108;11.448;2023-04-24T10:37:38;13.90;99.90
19813;DHT22;10066;48.108;11.448;2023-04-24T10:40:07;13.90;99.90
19813;DHT22;10066;48.108;11.448;2023-04-24T10:42:35;13.90;99.90
19813;DHT22;10066;48.108;11.448;2023-04-24T10:45:16;14.00;99.90
19813;DHT22;10066;48.108;11.448;2023-04-24T10:47:51;14.00;99.90
19813;DHT22;10066;48.108;11.448;2023-04-24T10:50:18;14.00;99.90
19813;DHT22;10066;48.108;11.448;2023-04-24T10:52:46;13.80;99.90
19813;DHT22;10066;48.108;11.448;2023-04-24T10:55:14;13.70;99.90
19813;DHT22;10066;48.108;11.448;2023-04-24T10:58:01;13.60;99.90
19813;DHT22;10066;48.108;11.448;2023-04-24T11:00:30;13.50;99.90
19813;DHT22;10066;48.108;11.448;2023-04-24T11:02:57;13.20;99.90
19813;DHT22;10066;48.108;11.448;2023-04-24T11:05:49;12.80;99.90
19813;DHT22;10066;48.108;11.448;2023-04-24T11:08:23;12.10;99.90
19813;DHT22;10066;48.108;11.448;2023-04-24T11:10:57;11.40;99.90
19813;DHT22;10066;48.108;11.448;2023-04-24T11:13:25;11.10;99.90
19813;DHT22;10066;48.108;11.448;2023-04-24T11:16:16;11.00;99.90
19813;DHT22;10066;48.108;11.448;2023-04-24T11:18:50;11.10;99.90
19813;DHT22;10066;48.108;11.448;2023-04-24T11:21:20;11.20;99.90
19813;DHT22;10066;48.108;11.448;2023-04-24T11:23:47;11.30;99.90
19813;DHT22;10066;48.108;11.448;2023-04-24T11:26:18;11.50;99.90
19813;DHT22;10066;48.108;11.448;2023-04-24T11:28:46;11.70;99.90
19813;DHT22;10066;48.108;11.448;2023-04-24T11:31:37;11.90;99.90
19813;DHT22;10066;48.108;11.448;2023-04-24T11:34:08;12.20;99.90
19813;DHT22;10066;48.108;11.448;2023-04-24T11:36:35;12.40;99.90
19813;DHT22;10066;48.108;11.448;2023-04-24T11:39:02;12.50;99.90
19813;DHT22;10066;48.108;11.448;2023-04-24T11:41:30;12.60;99.90
19813;DHT22;10066;48.108;11.448;2023-04-24T11:43:57;12.80;99.90
19813;DHT22;10066;48.108;11.448;2023-04-24T11:46:27;12.90;99.90
19813;DHT22;10066;48.108;11.448;2023-04-24T11:48:56;13.10;99.90
19813;DHT22;10066;48.108;11.448;2023-04-24T11:51:22;13.20;99.90
19813;DHT22;10066;48.108;11.448;2023-04-24T11:53:50;13.00;99.90
19813;DHT22;10066;48.108;11.448;2023-04-24T11:56:18;12.90;99.90
19813;DHT22;10066;48.108;11.448;2023-04-24T11:58:45;12.60;99.90
19813;DHT22;10066;48.108;11.448;2023-04-24T12:01:13;12.40;99.90
19813;DHT22;10066;48.108;11.448;2023-04-24T12:03:40;12.30;99.90
19813;DHT22;10066;48.108;11.448;2023-04-24T12:06:11;12.30;99.90
19813;DHT22;10066;48.108;11.448;2023-04-24T12:08:39;12.30;99.90
19813;DHT22;10066;48.108;11.448;2023-04-24T12:11:07;12.40;99.90
19813;DHT22;10066;48.108;11.448;2023-04-24T12:13:34;12.50;99.90
19813;DHT22;10066;48.108;11.448;2023-04-24T12:16:03;12.70;99.90
19813;DHT22;10066;48.108;11.448;2023-04-24T12:18:31;12.70;99.90
19813;DHT22;10066;48.108;11.448;2023-04-24T12:21:18;12.80;99.90
19813;DHT22;10066;48.108;11.448;2023-04-24T12:23:46;13.00;99.90
19813;DHT22;10066;48.108;11.448;2023-04-24T12:26:16;13.00;99.90
19813;DHT22;10066;48.108;11.448;2023-04-24T12:28:46;13.10;99.90
19813;DHT22;10066;48.108;11.448;2023-04-24T12:31:13;13.20;99.90
19813;DHT22;10066;48.108;11.448;2023-04-24T12:33:40;13.30;99.90
19813;DHT22;10066;48.108;11.448;2023-04-24T12:36:10;13.40;99.90
19813;DHT22;10066;48.108;11.448;2023-04-24T12:38:44;13.50;99.90
19813;DHT22;10066;48.108;11.448;2023-04-24T12:41:13;13.70;99.90
19813;DHT22;10066;48.108;11.448;2023-04-24T12:43:51;13.90;99.90
19813;DHT22;10066;48.108;11.448;2023-04-24T12:46:18;13.90;99.90
19813;DHT22;10066;48.108;11.448;2023-04-24T12:48:45;14.00;99.90
19813;DHT22;10066;48.108;11.448;2023-04-24T12:51:12;14.20;99.90
19813;DHT22;10066;48.108;11.448;2023-04-24T12:53:40;14.30;99.90
19813;DHT22;10066;48.108;11.448;2023-04-24T12:56:07;14.40;99.90
19813;DHT22;10066;48.108;11.448;2023-04-24T12:58:34;14.30;99.90
19813;DHT22;10066;48.108;11.448;2023-04-24T13:01:01;14.30;99.90
19813;DHT22;10066;48.108;11.448;2023-04-24T13:03:28;14.40;99.90
19813;DHT22;10066;48.108;11.448;2023-04-24T13:05:55;14.30;99.90
19813;DHT22;10066;48.108;11.448;2023-04-24T13:08:21;14.40;99.90
19813;DHT22;10066;48.108;11.448;2023-04-24T13:10:50;14.40;99.90
19813;DHT22;10066;48.108;11.448;2023-04-24T13:13:19;14.50;99.90
19813;DHT22;10066;48.108;11.448;2023-04-24T13:15:46;14.60;99.90
19813;DHT22;10066;48.108;11.448;2023-04-24T13:18:13;14.70;99.90
19813;DHT22;10066;48.108;11.448;2023-04-24T13:20:40;14.70;99.90
19813;DHT22;10066;48.108;11.448;2023-04-24T13:23:07;14.70;99.90
19813;DHT22;10066;48.108;11.448;2023-04-24T13:25:35;14.50;99.90
19813;DHT22;10066;48.108;11.448;2023-04-24T13:28:04;14.30;99.90
19813;DHT22;10066;48.108;11.448;2023-04-24T13:30:31;14.10;99.90
19813;DHT22;10066;48.108;11.448;2023-04-24T13:32:58;14.00;99.90
19813;DHT22;10066;48.108;11.448;2023-04-24T13:35:25;13.90;99.90
19813;DHT22;10066;48.108;11.448;2023-04-24T13:37:52;13.80;99.90
19813;DHT22;10066;48.108;11.448;2023-04-24T13:40:19;13.80;99.90
19813;DHT22;10066;48.108;11.448;2023-04-24T13:42:46;14.00;99.90
19813;DHT22;10066;48.108;11.448;2023-04-24T13:45:14;14.10;99.90
19813;DHT22;10066;48.108;11.448;2023-04-24T13:47:41;14.20;99.90
19813;DHT22;10066;48.108;11.448;2023-04-24T13:50:09;14.20;99.90
19813;DHT22;10066;48.108;11.448;2023-04-24T13:52:36;14.20;99.90
19813;DHT22;10066;48.108;11.448;2023-04-24T13:55:04;14.30;99.90
19813;DHT22;10066;48.108;11.448;2023-04-24T13:57:31;14.30;99.90
19813;DHT22;10066;48.108;11.448;2023-04-24T13:59:58;14.20;99.90
19813;DHT22;10066;48.108;11.448;2023-04-24T14:02:29;14.10;99.90
19813;DHT22;10066;48.108;11.448;2023-04-24T14:04:57;14.10;99.90
19813;DHT22;10066;48.108;11.448;2023-04-24T14:07:23;14.00;99.90
19813;DHT22;10066;48.108;11.448;2023-04-24T14:09:51;14.00;99.90
19813;DHT22;10066;48.108;11.448;2023-04-24T14:12:18;13.90;99.90
19813;DHT22;10066;48.108;11.448;2023-04-24T14:14:46;13.90;99.90
19813;DHT22;10066;48.108;11.448;2023-04-24T14:17:14;13.90;99.90
19813;DHT22;10066;48.108;11.448;2023-04-24T14:19:42;13.90;99.90
19813;DHT22;10066;48.108;11.448;2023-04-24T14:22:10;13.90;99.90
19813;DHT22;10066;48.108;11.448;2023-04-24T14:24:36;13.90;99.90
19813;DHT22;10066;48.108;11.448;2023-04-24T14:27:03;13.90;99.90
19813;DHT22;10066;48.108;11.448;2023-04-24T14:29:30;13.70;99.90
19813;DHT22;10066;48.108;11.448;2023-04-24T14:31:57;13.80;99.90
19813;DHT22;10066;48.108;11.448;2023-04-24T14:34:24;13.70;99.90
19813;DHT22;10066;48.108;11.448;2023-04-24T14:36:53;13.50;99.90
19813;DHT22;10066;48.108;11.448;2023-04-24T14:39:20;13.50;99.90
19813;DHT22;10066;48.108;11.448;2023-04-24T14:41:47;13.50;99.90
19813;DHT22;10066;48.108;11.448;2023-04-24T14:44:14;13.60;99.90
19813;DHT22;10066;48.108;11.448;2023-04-24T14:46:41;13.60;99.90
19813;DHT22;10066;48.108;11.448;2023-04-24T14:49:08;13.70;99.90
19813;DHT22;10066;48.108;11.448;2023-04-24T14:51:37;13.70;99.90
19813;DHT22;10066;48.108;11.448;2023-04-24T14:54:05;13.80;99.90
19813;DHT22;10066;48.108;11.448;2023-04-24T14:56:32;13.80;99.90
19813;DHT22;10066;48.108;11.448;2023-04-24T14:58:59;13.90;99.90
19813;DHT22;10066;48.108;11.448;2023-04-24T15:01:26;13.90;99.90
19813;DHT22;10066;48.108;11.448;2023-04-24T15:03:53;13.90;99.90
19813;DHT22;10066;48.108;11.448;2023-04-24T15:06:20;13.70;99.00
19813;DHT22;10066;48.108;11.448;2023-04-24T15:08:47;13.60;99.90
19813;DHT22;10066;48.108;11.448;2023-04-24T15:11:16;13.50;99.90
19813;DHT22;10066;48.108;11.448;2023-04-24T15:13:44;13.60;99.90
19813;DHT22;10066;48.108;11.448;2023-04-24T15:16:11;13.60;99.90
19813;DHT22;10066;48.108;11.448;2023-04-24T15:18:38;13.70;99.90
19813;DHT22;10066;48.108;11.448;2023-04-24T15:21:05;13.60;99.90
19813;DHT22;10066;48.108;11.448;2023-04-24T15:23:32;13.60;99.90
19813;DHT22;10066;48.108;11.448;2023-04-24T15:25:59;13.50;99.10
19813;DHT22;10066;48.108;11.448;2023-04-24T15:28:28;13.50;98.00